Time;durP1;ratioP1;P1;durP2;ratioP2;P2;SDS_P1;SDS_P2;PMS_P1;PMS_P2;Temp;Humidity;BMP_temperature;BMP_pressure;BME280_temperature;BME280_humidity;BME280_pressure;Samples;Min_cycle;Max_cycle;Signal;HPM_P1;HPM_P2
2022/03/18 00:02:10;;;;;;;6.50;4.50;;;8.90;99.90;;;;;;5114129;28;20452;-69
2022/03/18 00:04:36;;;;;;;9.77;5.47;;;8.90;99.90;;;;;;5114324;28;20882;-69
2022/03/18 00:07:03;;;;;;;10.03;5.80;;;8.90;99.90;;;;;;5114342;28;20487;-68
2022/03/18 00:09:30;;;;;;;9.50;5.20;;;8.90;99.90;;;;;;5114472;28;20459;-69
2022/03/18 00:11:58;;;;;;;9.50;5.30;;;8.90;99.90;;;;;;5114626;28;20456;-71
2022/03/18 00:14:25;;;;;;;10.33;5.07;;;8.90;99.90;;;;;;5114507;28;20793;-70
2022/03/18 00:16:52;;;;;;;8.77;5.40;;;8.90;99.90;;;;;;5114376;28;20452;-69
2022/03/18 00:19:19;;;;;;;13.67;5.67;;;8.90;99.90;;;;;;5114393;28;20536;-70
2022/03/18 00:21:45;;;;;;;7.70;5.37;;;8.90;99.90;;;;;;5114428;28;20471;-70
2022/03/18 00:24:12;;;;;;;42.17;25.13;;;8.90;99.90;;;;;;5114289;28;20540;-70
2022/03/18 00:26:42;;;;;;;13.33;6.63;;;8.90;99.90;;;;;;5113915;28;20476;-69
2022/03/18 00:29:10;;;;;;;13.87;6.03;;;8.90;99.90;;;;;;5116056;28;20875;-71
2022/03/18 00:31:36;;;;;;;12.47;5.90;;;8.90;99.90;;;;;;5117924;28;20467;-71
2022/03/18 00:34:03;;;;;;;8.23;5.70;;;8.90;99.90;;;;;;5117401;28;20894;-71
2022/03/18 00:36:30;;;;;;;9.33;4.83;;;8.90;99.90;;;;;;5117782;28;20513;-71
2022/03/18 00:38:56;;;;;;;8.47;4.87;;;8.90;99.90;;;;;;5117854;28;20467;-71
2022/03/18 00:41:24;;;;;;;8.43;5.13;;;8.90;99.90;;;;;;5117864;28;20751;-71
2022/03/18 00:43:52;;;;;;;10.83;5.80;;;8.90;99.90;;;;;;5119161;28;20491;-70
2022/03/18 00:46:22;;;;;;;9.73;5.47;;;8.90;99.90;;;;;;5120626;28;20549;-71
2022/03/18 00:54:20;;;;;;;12.17;5.50;;;8.90;99.90;;;;;;5097828;28;20420;-71
2022/03/18 00:56:46;;;;;;;9.13;4.83;;;8.90;99.90;;;;;;5097026;28;20441;-71
2022/03/18 00:59:13;;;;;;;10.63;5.20;;;8.80;99.90;;;;;;5097233;28;20464;-71
2022/03/18 01:01:41;;;;;;;10.57;5.17;;;8.90;99.90;;;;;;5096538;28;20453;-71
2022/03/18 01:04:08;;;;;;;8.40;5.17;;;8.90;99.90;;;;;;5097396;28;20780;-71
2022/03/18 01:06:35;;;;;;;8.77;5.00;;;8.90;99.90;;;;;;5097243;28;20481;-70
2022/03/18 01:09:02;;;;;;;7.57;5.10;;;8.90;99.90;;;;;;5096835;28;20500;-70
2022/03/18 01:11:30;;;;;;;9.60;4.93;;;8.80;99.90;;;;;;5096501;28;20544;-70
2022/03/18 01:13:56;;;;;;;12.77;5.50;;;8.90;99.90;;;;;;5096689;28;20453;-71
2022/03/18 01:16:25;;;;;;;8.87;5.20;;;8.90;99.90;;;;;;5096234;28;20453;-71
2022/03/18 01:18:53;;;;;;;9.13;4.53;;;8.90;99.90;;;;;;5096564;28;20499;-71
2022/03/18 01:21:20;;;;;;;9.27;4.70;;;8.90;99.90;;;;;;5096526;28;20457;-71
2022/03/18 01:23:47;;;;;;;9.63;4.90;;;8.80;99.90;;;;;;5096731;28;20453;-71
2022/03/18 01:26:13;;;;;;;9.30;4.93;;;8.80;99.90;;;;;;5096569;28;20465;-71
2022/03/18 01:28:40;;;;;;;9.13;4.97;;;8.80;99.90;;;;;;5096016;28;20555;-71
2022/03/18 01:31:07;;;;;;;10.93;5.33;;;8.90;99.90;;;;;;5096279;28;20580;-71
2022/03/18 01:33:36;;;;;;;11.10;4.73;;;8.90;99.90;;;;;;5096366;28;20457;-71
2022/03/18 01:36:04;;;;;;;13.47;4.57;;;8.90;99.90;;;;;;5096222;28;20552;-71
2022/03/18 01:38:31;;;;;;;10.37;4.63;;;9.00;99.90;;;;;;5096387;28;20518;-71
2022/03/18 01:40:58;;;;;;;9.80;5.50;;;9.00;99.90;;;;;;5095771;28;20461;-71
2022/03/18 01:43:26;;;;;;;16.07;5.40;;;8.90;99.90;;;;;;5096893;28;20484;-71
2022/03/18 01:45:53;;;;;;;13.13;5.20;;;8.90;99.90;;;;;;5096533;28;20472;-71
2022/03/18 01:48:20;;;;;;;10.37;6.90;;;8.90;99.90;;;;;;5095860;28;20481;-71
2022/03/18 01:50:47;;;;;;;7.73;4.43;;;8.90;99.90;;;;;;5095746;28;20965;-71
2022/03/18 01:53:15;;;;;;;12.30;5.40;;;8.90;99.90;;;;;;5108867;28;20492;-71
2022/03/18 01:55:41;;;;;;;11.90;4.80;;;8.90;99.90;;;;;;5116330;28;20472;-71
2022/03/18 01:58:08;;;;;;;12.57;5.17;;;9.00;99.90;;;;;;5116363;28;20452;-71
2022/03/18 02:00:35;;;;;;;9.43;4.00;;;8.90;99.90;;;;;;5117348;28;20565;-71
2022/03/18 02:03:03;;;;;;;7.70;4.70;;;8.90;99.90;;;;;;5118369;28;20864;-71
2022/03/18 02:05:29;;;;;;;8.63;4.63;;;8.90;99.90;;;;;;5119409;28;20456;-71
2022/03/18 02:07:56;;;;;;;9.87;5.37;;;8.80;99.90;;;;;;5123994;28;20472;-71
2022/03/18 02:10:24;;;;;;;9.47;4.50;;;8.80;99.90;;;;;;5116283;28;20464;-71
2022/03/18 02:12:51;;;;;;;10.03;5.60;;;8.80;99.90;;;;;;5116240;28;20459;-71
2022/03/18 02:15:18;;;;;;;9.60;4.00;;;8.90;99.90;;;;;;5115850;28;20525;-71
2022/03/18 02:17:44;;;;;;;8.20;4.70;;;8.90;99.90;;;;;;5115913;28;20459;-70
2022/03/18 02:20:11;;;;;;;8.67;5.33;;;8.80;99.90;;;;;;5115817;28;20479;-71
2022/03/18 02:22:41;;;;;;;8.43;4.13;;;8.80;99.90;;;;;;5115582;28;20455;-71
2022/03/18 02:25:12;;;;;;;8.40;4.00;;;8.80;99.90;;;;;;5115732;28;20781;-71
2022/03/18 02:27:39;;;;;;;8.30;3.80;;;8.80;99.90;;;;;;5115623;28;20530;-71
2022/03/18 02:30:10;;;;;;;6.63;3.80;;;8.80;99.90;;;;;;5115576;28;20518;-71
2022/03/18 02:32:37;;;;;;;7.83;4.10;;;8.80;99.90;;;;;;5115610;28;20500;-71
2022/03/18 02:35:05;;;;;;;7.30;3.40;;;8.80;99.90;;;;;;5115170;28;20467;-71
2022/03/18 02:37:31;;;;;;;5.83;3.90;;;8.80;99.90;;;;;;5115415;28;20448;-71
2022/03/18 02:39:59;;;;;;;8.87;4.30;;;8.80;99.90;;;;;;5115573;28;20517;-71
2022/03/18 02:42:26;;;;;;;10.87;3.37;;;8.80;99.90;;;;;;5115809;28;20539;-71
2022/03/18 02:44:53;;;;;;;7.07;4.13;;;8.80;99.90;;;;;;5115583;28;20526;-71
2022/03/18 02:47:20;;;;;;;10.53;4.20;;;8.80;99.90;;;;;;5115287;28;20540;-71
2022/03/18 02:49:47;;;;;;;11.57;3.70;;;8.90;99.90;;;;;;5115134;28;20459;-71
2022/03/18 02:52:14;;;;;;;8.93;4.23;;;8.80;99.90;;;;;;5114169;28;20488;-71
2022/03/18 02:54:41;;;;;;;11.37;3.90;;;8.80;99.90;;;;;;5115046;28;20452;-71
2022/03/18 02:57:09;;;;;;;6.87;3.90;;;8.80;99.90;;;;;;5115007;28;20926;-71
2022/03/18 02:59:36;;;;;;;8.00;3.50;;;8.80;99.90;;;;;;5115474;28;20463;-72
2022/03/18 03:02:03;;;;;;;9.60;4.20;;;8.80;99.90;;;;;;5115141;28;20490;-71
2022/03/18 03:04:30;;;;;;;13.30;3.50;;;8.80;99.90;;;;;;5115125;28;20848;-72
2022/03/18 03:09:41;;;;;;;8.00;3.10;;;8.80;99.90;;;;;;5115419;28;20436;-71
2022/03/18 03:12:09;;;;;;;5.43;3.53;;;8.80;99.90;;;;;;5114730;28;20453;-72
2022/03/18 03:14:36;;;;;;;17.70;4.10;;;8.70;99.90;;;;;;5114506;28;20456;-71
2022/03/18 03:17:03;;;;;;;7.63;3.90;;;8.70;99.90;;;;;;5115111;28;20503;-71
2022/03/18 03:19:30;;;;;;;7.53;3.10;;;8.70;99.90;;;;;;5114803;28;20464;-71
2022/03/18 03:21:57;;;;;;;9.00;3.50;;;8.70;99.90;;;;;;5114763;28;20539;-72
2022/03/18 03:24:24;;;;;;;9.73;4.13;;;8.70;99.90;;;;;;5114892;28;20522;-71
2022/03/18 03:26:50;;;;;;;8.13;3.67;;;8.70;99.90;;;;;;5114992;28;20456;-71
2022/03/18 03:29:18;;;;;;;9.53;3.20;;;8.70;99.90;;;;;;5114958;28;20464;-70
2022/03/18 03:31:45;;;;;;;10.73;3.40;;;8.70;99.90;;;;;;5114496;28;20463;-70
2022/03/18 03:34:14;;;;;;;8.47;3.37;;;8.60;99.90;;;;;;5114892;28;20803;-72
2022/03/18 03:36:41;;;;;;;11.60;3.33;;;8.60;99.90;;;;;;5114829;28;20801;-71
2022/03/18 03:39:09;;;;;;;10.47;3.77;;;8.60;99.90;;;;;;5114621;28;20464;-71
2022/03/18 03:41:36;;;;;;;6.87;3.23;;;8.60;99.90;;;;;;5114885;28;20456;-71
2022/03/18 03:44:03;;;;;;;5.83;3.37;;;8.60;99.90;;;;;;5115173;28;20489;-71
2022/03/18 03:46:33;;;;;;;10.13;3.50;;;8.60;99.90;;;;;;5114862;28;20846;-71
2022/03/18 03:49:00;;;;;;;6.77;2.97;;;8.70;99.90;;;;;;5114378;28;20555;-73
2022/03/18 03:51:27;;;;;;;8.93;4.03;;;8.60;99.90;;;;;;5114832;28;20460;-72
2022/03/18 03:53:53;;;;;;;10.57;3.83;;;8.70;99.90;;;;;;5114181;28;20522;-71
2022/03/18 03:56:20;;;;;;;11.37;4.17;;;8.60;99.90;;;;;;5114546;28;20467;-71
2022/03/18 03:58:48;;;;;;;8.20;3.10;;;8.70;99.90;;;;;;5114338;28;20464;-72
2022/03/18 04:01:14;;;;;;;7.30;3.20;;;8.70;99.90;;;;;;5114835;28;20452;-71
2022/03/18 04:03:45;;;;;;;9.07;3.30;;;8.70;99.90;;;;;;5116378;28;20824;-72
2022/03/18 04:06:11;;;;;;;10.17;3.30;;;8.60;99.90;;;;;;5118491;28;20476;-71
2022/03/18 04:08:38;;;;;;;6.67;3.73;;;8.60;99.90;;;;;;5118915;28;20487;-71
2022/03/18 04:11:05;;;;;;;6.20;2.87;;;8.70;99.90;;;;;;5118504;28;20448;-72
2022/03/18 04:13:31;;;;;;;15.13;3.30;;;8.60;99.90;;;;;;5118456;28;20462;-71
2022/03/18 04:15:58;;;;;;;8.73;2.70;;;8.60;99.90;;;;;;5118373;28;20795;-71
2022/03/18 04:18:25;;;;;;;9.53;2.67;;;8.60;99.90;;;;;;5120437;28;20459;-72
2022/03/18 04:20:53;;;;;;;7.27;2.63;;;8.60;99.90;;;;;;5122158;28;20800;-71
2022/03/18 04:23:19;;;;;;;11.33;2.90;;;8.50;99.90;;;;;;5118906;28;20456;-72
2022/03/18 04:25:46;;;;;;;6.00;3.60;;;8.50;99.90;;;;;;5119065;28;20460;-72
2022/03/18 04:28:13;;;;;;;7.83;2.90;;;8.50;99.90;;;;;;5117877;28;20529;-72
2022/03/18 04:30:39;;;;;;;12.77;3.30;;;8.50;99.90;;;;;;5118055;28;20463;-71
2022/03/18 04:33:06;;;;;;;7.33;3.03;;;8.50;99.90;;;;;;5118007;28;20471;-71
2022/03/18 04:35:33;;;;;;;12.83;2.93;;;8.50;99.90;;;;;;5118108;28;20464;-72
2022/03/18 04:38:01;;;;;;;12.97;4.23;;;8.40;99.90;;;;;;5118183;28;20452;-71
2022/03/18 04:40:28;;;;;;;11.60;2.87;;;8.40;99.90;;;;;;5117794;28;20468;-72
2022/03/18 04:42:55;;;;;;;11.70;3.53;;;8.40;99.90;;;;;;5118397;28;20464;-70
2022/03/18 04:45:22;;;;;;;8.80;3.30;;;8.30;99.90;;;;;;5117557;28;20456;-71
2022/03/18 04:47:49;;;;;;;10.17;3.57;;;8.30;99.90;;;;;;5117398;28;20491;-70
2022/03/18 04:50:16;;;;;;;8.43;3.10;;;8.20;99.90;;;;;;5117658;28;20466;-71
2022/03/18 04:52:42;;;;;;;8.27;3.47;;;8.20;99.90;;;;;;5117136;28;20514;-72
2022/03/18 04:55:11;;;;;;;9.40;3.33;;;8.10;99.90;;;;;;5117278;28;20950;-71
2022/03/18 04:57:38;;;;;;;7.57;3.07;;;8.10;99.90;;;;;;5117622;28;20950;-72
2022/03/18 05:00:06;;;;;;;5.67;2.33;;;8.00;99.90;;;;;;5117927;28;20513;-71
2022/03/18 05:02:35;;;;;;;12.07;3.10;;;8.00;99.90;;;;;;5117629;28;20457;-71
2022/03/18 05:05:02;;;;;;;10.27;3.00;;;7.90;99.90;;;;;;5117912;28;20796;-71
2022/03/18 05:07:29;;;;;;;12.00;3.97;;;7.80;99.90;;;;;;5122570;28;20766;-72
2022/03/18 05:09:56;;;;;;;17.10;4.57;;;7.70;99.90;;;;;;5124827;28;20459;-71
2022/03/18 05:12:26;;;;;;;12.63;3.27;;;7.60;99.90;;;;;;5122276;28;20448;-71
2022/03/18 05:14:53;;;;;;;8.90;3.73;;;7.60;99.90;;;;;;5118624;28;20472;-72
2022/03/18 05:17:20;;;;;;;8.10;3.00;;;7.50;99.90;;;;;;5119079;28;20455;-71
2022/03/18 05:19:46;;;;;;;8.30;2.37;;;7.40;99.90;;;;;;5118542;28;20464;-73
2022/03/18 05:22:13;;;;;;;11.90;3.43;;;7.40;99.90;;;;;;5117992;28;20908;-70
2022/03/18 05:24:40;;;;;;;17.50;3.03;;;7.30;99.90;;;;;;5117458;28;20448;-72
2022/03/18 05:27:07;;;;;;;9.00;2.40;;;7.30;99.90;;;;;;5117192;28;20778;-72
2022/03/18 05:29:36;;;;;;;7.50;2.40;;;7.40;99.90;;;;;;5117168;28;20486;-71
2022/03/18 05:32:03;;;;;;;9.47;2.57;;;7.30;99.90;;;;;;5118783;28;20495;-72
2022/03/18 05:34:30;;;;;;;7.20;2.40;;;7.40;99.90;;;;;;5117571;28;20464;-72
2022/03/18 05:36:57;;;;;;;10.67;2.80;;;7.40;99.90;;;;;;5117368;28;20460;-72
2022/03/18 05:39:24;;;;;;;8.67;2.50;;;7.40;99.90;;;;;;5116871;28;20464;-72
2022/03/18 05:41:50;;;;;;;8.40;2.97;;;7.40;99.90;;;;;;5116333;28;20967;-72
2022/03/18 05:44:17;;;;;;;6.87;3.00;;;7.40;99.90;;;;;;5116814;28;20452;-71
2022/03/18 05:46:45;;;;;;;14.33;3.33;;;7.30;99.90;;;;;;5116825;28;20467;-72
2022/03/18 05:49:14;;;;;;;8.33;2.73;;;7.30;99.90;;;;;;5116535;28;20487;-72
2022/03/18 05:51:41;;;;;;;8.57;2.80;;;7.30;99.90;;;;;;5116179;28;20456;-72
2022/03/18 05:54:08;;;;;;;8.13;3.30;;;7.20;99.90;;;;;;5116648;28;20451;-72
2022/03/18 05:56:55;;;;;;;13.83;2.70;;;7.20;99.90;;;;;;5116517;28;20464;-72
2022/03/18 05:59:23;;;;;;;12.73;3.00;;;7.10;99.90;;;;;;5116619;28;20441;-72
2022/03/18 06:01:52;;;;;;;8.73;2.40;;;7.10;99.90;;;;;;5115997;28;20748;-72
2022/03/18 06:04:19;;;;;;;12.40;2.83;;;7.00;99.90;;;;;;5116372;28;20464;-73
2022/03/18 06:06:47;;;;;;;7.03;3.10;;;7.00;99.90;;;;;;5116638;28;20463;-72
2022/03/18 06:11:59;;;;;;;9.23;3.03;;;6.80;99.90;;;;;;5116100;28;20424;-72
2022/03/18 06:14:27;;;;;;;10.13;2.93;;;6.80;99.90;;;;;;5115807;28;20926;-73
2022/03/18 06:16:57;;;;;;;8.20;2.93;;;6.80;99.90;;;;;;5115980;28;20453;-72
2022/03/18 06:19:25;;;;;;;12.40;3.37;;;6.70;99.90;;;;;;5115900;28;20452;-71
2022/03/18 06:21:52;;;;;;;12.73;3.57;;;6.70;99.90;;;;;;5115769;28;20492;-73
2022/03/18 06:24:20;;;;;;;17.03;5.67;;;6.70;99.90;;;;;;5115930;28;20483;-71
2022/03/18 06:26:47;;;;;;;19.00;4.57;;;6.60;99.90;;;;;;5115548;27;20619;-71
2022/03/18 06:29:14;;;;;;;11.47;2.97;;;6.60;99.90;;;;;;5115511;28;20484;-72
2022/03/18 06:31:41;;;;;;;10.47;3.30;;;6.60;99.90;;;;;;5115775;28;20460;-72
2022/03/18 06:34:11;;;;;;;17.83;3.43;;;6.60;99.90;;;;;;5115555;28;20460;-71
2022/03/18 06:36:37;;;;;;;10.53;2.87;;;6.60;99.90;;;;;;5115167;28;20780;-72
2022/03/18 06:39:07;;;;;;;15.67;3.77;;;6.60;99.90;;;;;;5114960;28;20456;-72
2022/03/18 06:41:34;;;;;;;16.77;3.20;;;6.60;99.90;;;;;;5115238;28;20462;-72
2022/03/18 06:44:01;;;;;;;13.83;3.50;;;6.60;99.90;;;;;;5115031;28;20940;-72
2022/03/18 06:46:28;;;;;;;8.83;2.90;;;6.60;99.90;;;;;;5115786;28;20792;-72
2022/03/18 06:48:55;;;;;;;8.67;3.37;;;6.70;99.90;;;;;;5115252;28;20508;-73
2022/03/18 06:51:23;;;;;;;15.10;3.20;;;6.70;99.90;;;;;;5115282;28;20453;-73
2022/03/18 06:53:49;;;;;;;11.10;2.70;;;6.70;99.90;;;;;;5116039;28;20491;-72
2022/03/18 06:56:19;;;;;;;9.63;3.60;;;6.70;99.90;;;;;;5115664;28;20463;-72
2022/03/18 06:58:46;;;;;;;11.57;2.47;;;6.80;99.90;;;;;;5115813;28;20452;-72
2022/03/18 07:01:13;;;;;;;14.50;3.53;;;6.80;99.90;;;;;;5114994;28;20469;-73
2022/03/18 07:03:40;;;;;;;13.23;2.80;;;6.80;99.90;;;;;;5115225;28;20468;-71
2022/03/18 07:06:07;;;;;;;14.53;2.73;;;6.80;99.90;;;;;;5114613;28;20457;-73
2022/03/18 07:08:35;;;;;;;7.57;3.07;;;6.80;99.90;;;;;;5114719;28;21042;-72
2022/03/18 07:11:02;;;;;;;9.80;2.77;;;6.90;99.90;;;;;;5114142;28;20476;-73
2022/03/18 07:13:29;;;;;;;10.77;2.87;;;6.90;99.90;;;;;;5114204;28;20452;-71
2022/03/18 07:17:54;;;;;;;7.97;2.27;;;6.90;99.90;;;;;;5114605;28;20486;-72
2022/03/18 07:18:41;;;;;;;4.87;2.70;;;7.00;99.90;;;;;;5114527;28;20433;-72
2022/03/18 07:21:08;;;;;;;13.93;4.20;;;7.10;99.90;;;;;;5114183;28;20518;-72
2022/03/18 07:23:36;;;;;;;17.07;3.57;;;7.10;99.90;;;;;;5114900;28;20202;-73
2022/03/18 07:26:03;;;;;;;9.40;4.20;;;7.20;99.90;;;;;;5114848;28;20452;-72
2022/03/18 07:28:30;;;;;;;11.70;2.90;;;7.30;99.90;;;;;;5115165;28;20832;-71
2022/03/18 07:30:56;;;;;;;15.60;3.60;;;7.30;99.90;;;;;;5114494;28;20461;-71
2022/03/18 07:33:23;;;;;;;13.50;4.43;;;7.30;99.90;;;;;;5114619;28;20463;-71
2022/03/18 07:35:50;;;;;;;11.77;3.70;;;7.40;99.90;;;;;;5114764;28;20456;-71
2022/03/18 07:38:17;;;;;;;8.97;3.40;;;7.40;99.90;;;;;;5116040;28;20456;-72
2022/03/18 07:40:45;;;;;;;11.83;4.13;;;7.50;99.90;;;;;;5119058;28;20462;-73
2022/03/18 07:43:11;;;;;;;11.73;3.67;;;7.50;99.90;;;;;;5118788;28;20460;-73
2022/03/18 07:45:38;;;;;;;8.23;3.00;;;7.50;99.90;;;;;;5118586;28;20859;-71
2022/03/18 07:48:07;;;;;;;19.80;4.37;;;7.60;99.90;;;;;;5118441;28;20451;-72
2022/03/18 07:50:35;;;;;;;6.60;3.10;;;7.60;99.90;;;;;;5118622;28;20543;-72
2022/03/18 07:53:05;;;;;;;10.50;3.80;;;7.60;99.90;;;;;;5118084;28;20476;-73
2022/03/18 07:55:34;;;;;;;10.70;3.00;;;7.60;99.90;;;;;;5118529;28;20447;-72
2022/03/18 07:58:02;;;;;;;15.93;3.10;;;7.60;99.90;;;;;;5119078;28;20456;-71
2022/03/18 08:00:29;;;;;;;10.23;3.23;;;7.60;99.90;;;;;;5118214;28;20505;-72
2022/03/18 08:02:56;;;;;;;14.50;2.83;;;7.60;99.90;;;;;;5118259;28;21092;-72
2022/03/18 08:05:23;;;;;;;12.67;3.17;;;7.60;99.90;;;;;;5117936;28;20464;-72
2022/03/18 08:07:50;;;;;;;16.07;7.63;;;7.70;99.90;;;;;;5117914;28;20462;-72
2022/03/18 08:10:18;;;;;;;10.67;4.43;;;7.70;99.90;;;;;;5118014;28;20482;-72
2022/03/18 08:12:46;;;;;;;11.60;5.30;;;7.70;99.90;;;;;;5118116;28;20492;-73
2022/03/18 08:15:15;;;;;;;14.60;3.97;;;7.80;99.90;;;;;;5118191;28;20543;-72
2022/03/18 08:17:43;;;;;;;16.20;6.23;;;7.80;99.90;;;;;;5117923;28;20481;-72
2022/03/18 08:20:12;;;;;;;21.97;5.47;;;7.90;99.90;;;;;;5117739;28;20452;-72
2022/03/18 08:22:40;;;;;;;12.90;4.80;;;7.90;99.90;;;;;;5117456;28;20455;-72
2022/03/18 08:25:07;;;;;;;13.13;3.97;;;8.00;99.90;;;;;;5117725;28;20464;-72
2022/03/18 08:27:37;;;;;;;8.37;3.07;;;8.00;99.90;;;;;;5117888;28;20522;-72
2022/03/18 08:30:06;;;;;;;13.47;4.70;;;7.90;99.90;;;;;;5117885;28;20515;-73
2022/03/18 08:32:35;;;;;;;14.00;4.50;;;8.00;99.90;;;;;;5117837;28;20456;-72
2022/03/18 08:35:02;;;;;;;14.70;4.43;;;8.00;99.90;;;;;;5117855;28;20452;-72
2022/03/18 08:40:14;;;;;;;21.30;7.60;;;8.20;99.90;;;;;;5118085;28;20841;-72
2022/03/18 08:42:41;;;;;;;11.17;4.10;;;8.30;99.90;;;;;;5117799;28;20448;-72
2022/03/18 08:45:09;;;;;;;17.63;6.17;;;8.30;99.90;;;;;;5117547;28;20516;-72
2022/03/18 08:47:37;;;;;;;12.20;3.40;;;8.40;99.90;;;;;;5117607;28;20867;-72
2022/03/18 08:50:05;;;;;;;31.60;13.87;;;8.40;99.90;;;;;;5117402;28;20491;-73
2022/03/18 08:52:32;;;;;;;17.90;7.13;;;8.40;99.90;;;;;;5116786;28;20476;-72
2022/03/18 08:54:59;;;;;;;21.77;8.90;;;8.50;99.90;;;;;;5116940;28;20460;-73
2022/03/18 08:57:28;;;;;;;16.10;5.20;;;8.50;99.90;;;;;;5116779;28;20964;-72
2022/03/18 08:59:55;;;;;;;14.80;3.27;;;8.60;99.90;;;;;;5116858;28;20453;-72
2022/03/18 09:02:21;;;;;;;14.37;4.20;;;8.70;99.90;;;;;;5117323;28;20477;-71
2022/03/18 09:04:50;;;;;;;9.67;3.50;;;8.70;99.90;;;;;;5117181;28;20456;-73
2022/03/18 09:07:17;;;;;;;19.20;7.43;;;8.80;99.90;;;;;;5116931;28;20870;-72
2022/03/18 09:09:44;;;;;;;13.83;3.40;;;8.90;99.90;;;;;;5116788;28;20491;-72
2022/03/18 09:12:11;;;;;;;7.20;3.67;;;9.00;99.90;;;;;;5116889;28;20461;-72
2022/03/18 09:14:37;;;;;;;10.83;2.67;;;9.10;99.90;;;;;;5116516;28;20468;-71
2022/03/18 09:17:05;;;;;;;7.70;3.10;;;9.20;99.90;;;;;;5116025;28;20452;-71
2022/03/18 09:19:31;;;;;;;9.00;3.30;;;9.20;99.90;;;;;;5116988;28;20499;-74
2022/03/18 09:21:59;;;;;;;11.50;3.50;;;9.30;99.90;;;;;;5116422;28;20452;-72
2022/03/18 09:24:26;;;;;;;16.20;4.57;;;9.30;99.90;;;;;;5116581;28;20468;-72
2022/03/18 09:26:53;;;;;;;13.10;3.47;;;9.40;99.90;;;;;;5116325;28;20465;-72
2022/03/18 09:29:24;;;;;;;13.20;4.50;;;9.50;99.90;;;;;;5116279;28;20483;-71
2022/03/18 09:31:51;;;;;;;12.90;3.43;;;9.60;99.90;;;;;;5115945;28;20433;-72
2022/03/18 09:34:22;;;;;;;9.80;3.97;;;9.60;99.90;;;;;;5116437;28;20460;-72
2022/03/18 09:36:49;;;;;;;13.00;3.83;;;9.60;99.90;;;;;;5116995;28;20437;-73
2022/03/18 09:39:17;;;;;;;19.73;6.23;;;9.60;99.90;;;;;;5117199;28;20464;-73
2022/03/18 09:41:44;;;;;;;8.83;4.90;;;9.60;99.90;;;;;;5116407;28;20552;-72
2022/03/18 09:44:10;;;;;;;37.43;20.10;;;9.70;99.90;;;;;;5116792;28;20456;-72
2022/03/18 09:46:37;;;;;;;17.13;3.67;;;9.70;99.90;;;;;;5116264;28;20543;-72
2022/03/18 09:49:06;;;;;;;11.20;4.00;;;9.70;99.90;;;;;;5116184;28;20549;-71
2022/03/18 09:51:32;;;;;;;12.97;4.10;;;9.80;99.90;;;;;;5115645;28;20478;-71
2022/03/18 09:53:59;;;;;;;14.83;4.90;;;9.80;99.90;;;;;;5115470;28;20487;-72
2022/03/18 09:56:27;;;;;;;10.80;5.00;;;9.90;99.90;;;;;;5115662;28;20452;-75
2022/03/18 09:58:54;;;;;;;13.40;4.20;;;10.00;99.90;;;;;;5115782;28;20517;-73
2022/03/18 10:01:20;;;;;;;16.10;5.87;;;10.10;99.90;;;;;;5114679;28;20456;-72
2022/03/18 10:03:50;;;;;;;9.77;5.33;;;10.10;99.90;;;;;;5116238;28;20822;-72
2022/03/18 10:06:18;;;;;;;15.17;5.00;;;10.20;99.90;;;;;;5116025;28;20491;-71
2022/03/18 10:08:50;;;;;;;13.53;5.20;;;10.30;99.90;;;;;;5115906;28;20530;-71
2022/03/18 10:11:19;;;;;;;16.80;6.10;;;10.40;99.90;;;;;;5114904;28;20449;-74
2022/03/18 10:13:56;;;;;;;11.40;5.63;;;10.50;99.90;;;;;;5115545;28;20942;-72
2022/03/18 10:16:32;;;;;;;12.50;5.70;;;10.60;99.90;;;;;;5115766;28;20433;-73
2022/03/18 10:18:59;;;;;;;13.67;5.67;;;10.60;99.90;;;;;;5115048;28;20483;-72
2022/03/18 10:21:26;;;;;;;13.23;5.77;;;10.70;99.90;;;;;;5114992;28;20456;-72
2022/03/18 10:24:07;;;;;;;15.10;5.10;;;10.70;99.90;;;;;;5115696;28;20468;-72
2022/03/18 10:26:38;;;;;;;17.43;7.17;;;10.80;99.90;;;;;;5115453;28;20514;-72
2022/03/18 10:29:11;;;;;;;7.87;4.60;;;10.80;99.90;;;;;;5115315;28;20467;-72
2022/03/18 10:31:39;;;;;;;11.90;5.20;;;10.90;99.90;;;;;;5115480;28;20451;-72
2022/03/18 10:37:07;;;;;;;18.07;7.37;;;11.00;99.90;;;;;;5115176;28;20427;-72
2022/03/18 10:39:37;;;;;;;12.63;5.70;;;11.10;99.90;;;;;;5115784;28;20441;-72
2022/03/18 10:42:06;;;;;;;10.63;4.73;;;11.10;99.90;;;;;;5115056;28;20456;-72
2022/03/18 10:44:46;;;;;;;15.27;10.23;;;11.20;99.90;;;;;;5115276;28;20513;-72
2022/03/18 10:47:30;;;;;;;9.23;5.00;;;11.30;99.90;;;;;;5114796;28;20890;-72
2022/03/18 10:50:19;;;;;;;13.07;4.77;;;11.40;99.90;;;;;;5114180;28;20500;-72
2022/03/18 10:53:08;;;;;;;10.60;4.50;;;11.50;99.90;;;;;;5114335;28;20483;-72
2022/03/18 10:55:37;;;;;;;14.83;6.30;;;11.60;99.90;;;;;;5114798;28;20441;-73
2022/03/18 10:58:07;;;;;;;8.37;4.10;;;11.60;99.90;;;;;;5114706;28;20468;-73
2022/03/18 11:00:37;;;;;;;7.50;4.23;;;11.70;99.90;;;;;;5114649;28;20763;-73
2022/03/18 11:03:05;;;;;;;5.63;3.70;;;11.80;99.90;;;;;;5114523;28;20463;-73
2022/03/18 11:05:33;;;;;;;10.53;4.23;;;11.90;99.90;;;;;;5114684;28;20484;-71
2022/03/18 11:08:02;;;;;;;14.03;6.77;;;12.00;99.90;;;;;;5115164;28;20467;-72
2022/03/18 11:13:14;;;;;;;10.60;4.30;;;12.20;99.90;;;;;;5114776;28;20419;-74
2022/03/18 11:15:45;;;;;;;8.83;4.40;;;12.10;99.90;;;;;;5117106;28;20475;-72
2022/03/18 11:18:13;;;;;;;12.37;4.30;;;12.10;99.90;;;;;;5115406;28;20456;-72
2022/03/18 11:20:43;;;;;;;11.60;4.57;;;12.10;99.90;;;;;;5114009;28;20452;-73
2022/03/18 11:23:18;;;;;;;10.57;4.97;;;12.20;99.90;;;;;;5115321;28;20797;-70
2022/03/18 11:25:47;;;;;;;7.93;4.30;;;12.30;99.90;;;;;;5114520;28;20855;-73
2022/03/18 11:28:16;;;;;;;11.83;4.13;;;12.40;99.90;;;;;;5114317;28;20908;-70
2022/03/18 11:30:47;;;;;;;17.87;7.33;;;12.50;99.90;;;;;;5115024;28;20990;-69
2022/03/18 11:33:23;;;;;;;21.67;4.67;;;12.60;99.90;;;;;;5113821;28;20535;-70
2022/03/18 11:36:15;;;;;;;12.40;5.30;;;12.70;99.90;;;;;;5114967;28;20471;-70
2022/03/18 11:39:07;;;;;;;12.23;5.37;;;13.00;99.90;;;;;;5115260;28;20480;-70
2022/03/18 11:41:57;;;;;;;9.60;5.27;;;13.40;99.90;;;;;;5112797;28;20535;-70
2022/03/18 11:44:50;;;;;;;5.83;3.83;;;13.90;99.90;;;;;;5114509;28;20536;-70
2022/03/18 11:47:40;;;;;;;8.03;3.30;;;14.10;99.90;;;;;;5114491;28;20501;-70
2022/03/18 11:50:42;;;;;;;9.60;3.83;;;14.20;99.90;;;;;;5114186;28;20475;-70
2022/03/18 11:53:13;;;;;;;8.80;3.40;;;14.60;99.90;;;;;;5113823;28;20589;-70
2022/03/18 11:55:40;;;;;;;6.93;3.23;;;14.80;99.90;;;;;;5114165;28;20444;-70
2022/03/18 11:58:29;;;;;;;9.73;4.00;;;14.90;99.90;;;;;;5114340;28;20476;-70
2022/03/18 12:00:55;;;;;;;7.27;2.63;;;15.10;99.90;;;;;;5114274;28;20511;-70
2022/03/18 12:03:29;;;;;;;8.60;3.50;;;15.80;99.90;;;;;;5113929;28;20452;-70
2022/03/18 12:05:57;;;;;;;6.60;2.53;;;16.80;99.90;;;;;;5113601;28;20440;-70
2022/03/18 12:08:59;;;;;;;4.20;2.93;;;17.70;96.90;;;;;;5114277;28;20513;-70
2022/03/18 12:11:32;;;;;;;4.53;3.07;;;18.40;94.30;;;;;;5114001;28;20911;-70
2022/03/18 12:14:00;;;;;;;5.67;2.20;;;19.30;79.50;;;;;;5114567;28;20437;-71
2022/03/18 12:16:27;;;;;;;10.63;2.70;;;19.90;67.30;;;;;;5113870;28;20471;-71
2022/03/18 12:19:00;;;;;;;14.67;8.93;;;20.20;60.30;;;;;;5114043;28;20453;-71
2022/03/18 12:21:39;;;;;;;5.83;2.60;;;20.50;57.00;;;;;;5115409;28;20458;-70
2022/03/18 12:24:08;;;;;;;7.00;2.70;;;20.80;55.20;;;;;;5116246;28;20445;-70
2022/03/18 12:26:36;;;;;;;8.07;2.80;;;20.90;53.80;;;;;;5117366;28;20467;-70
2022/03/18 12:29:04;;;;;;;4.47;2.73;;;21.50;52.50;;;;;;5117360;28;20922;-74
2022/03/18 12:31:31;;;;;;;6.03;2.07;;;21.80;49.70;;;;;;5117325;28;20858;-70
2022/03/18 12:34:00;;;;;;;6.03;2.53;;;21.80;48.20;;;;;;5117105;28;20463;-70
2022/03/18 12:36:28;;;;;;;6.63;2.80;;;21.70;47.00;;;;;;5117170;28;20471;-70
2022/03/18 12:39:10;;;;;;;5.57;2.27;;;21.70;47.30;;;;;;5117574;28;20460;-70
2022/03/18 12:41:37;;;;;;;5.77;2.23;;;21.80;45.70;;;;;;5117324;28;20462;-70
2022/03/18 12:44:07;;;;;;;11.33;2.70;;;22.10;44.80;;;;;;5116737;28;20460;-70
2022/03/18 12:46:35;;;;;;;10.87;3.27;;;22.60;44.00;;;;;;5117268;28;20463;-70
2022/03/18 12:49:06;;;;;;;8.20;6.17;;;23.20;43.10;;;;;;5117160;28;20460;-71
2022/03/18 12:51:35;;;;;;;8.37;3.97;;;23.40;41.10;;;;;;5117302;28;20542;-71
2022/03/18 12:54:02;;;;;;;13.80;6.30;;;23.50;40.40;;;;;;5116091;28;20476;-71
2022/03/18 12:56:29;;;;;;;6.20;3.20;;;23.60;40.20;;;;;;5116929;28;20519;-70
2022/03/18 12:58:57;;;;;;;5.63;2.70;;;23.80;38.40;;;;;;5116962;28;20768;-71
2022/03/18 13:01:24;;;;;;;6.87;3.47;;;23.60;36.60;;;;;;5116498;28;20457;-71
2022/03/18 13:03:51;;;;;;;6.50;2.50;;;23.40;37.20;;;;;;5116777;28;20457;-70
2022/03/18 13:06:21;;;;;;;5.63;2.70;;;23.80;35.90;;;;;;5116337;28;20565;-71
2022/03/18 13:08:51;;;;;;;3.93;1.80;;;23.70;34.80;;;;;;5116671;28;20503;-70
2022/03/18 13:11:18;;;;;;;7.63;3.13;;;23.60;1.00;;;;;;5116668;28;20811;-69
2022/03/18 13:13:46;;;;;;;10.00;7.03;;;24.20;1.00;;;;;;5116535;28;20834;-71
2022/03/18 13:16:15;;;;;;;4.53;1.97;;;24.60;1.00;;;;;;5116906;28;20539;-71
2022/03/18 13:18:50;;;;;;;7.93;1.90;;;25.10;1.00;;;;;;5116313;28;20467;-70